sensor_id;sensor_type;location;lat;lon;timestamp;pressure;altitude;pressure_sealevel;temperature;humidity
25855;BME280;13680;49.936;11.344;2023-08-12T00:00:01;97172.56;;;18.20;76.11
25855;BME280;13680;49.936;11.344;2023-08-12T00:02:53;97164.41;;;18.20;75.64
25855;BME280;13680;49.936;11.344;2023-08-12T00:05:18;97163.16;;;18.17;75.90
25855;BME280;13680;49.936;11.344;2023-08-12T00:07:43;97162.13;;;18.09;76.51
25855;BME280;13680;49.936;11.344;2023-08-12T00:10:10;97169.03;;;18.07;76.75
25855;BME280;13680;49.936;11.344;2023-08-12T00:12:37;97168.34;;;18.10;76.43
25855;BME280;13680;49.936;11.344;2023-08-12T00:15:03;97166.66;;;18.05;76.70
25855;BME280;13680;49.936;11.344;2023-08-12T00:17:30;97163.94;;;18.05;76.24
25855;BME280;13680;49.936;11.344;2023-08-12T00:19:55;97167.09;;;18.07;75.44
25855;BME280;13680;49.936;11.344;2023-08-12T00:22:22;97167.88;;;17.95;75.81
25855;BME280;13680;49.936;11.344;2023-08-12T00:24:47;97157.78;;;17.96;76.26
25855;BME280;13680;49.936;11.344;2023-08-12T00:27:12;97160.69;;;17.91;76.49
25855;BME280;13680;49.936;11.344;2023-08-12T00:29:38;97156.59;;;17.84;76.74
25855;BME280;13680;49.936;11.344;2023-08-12T00:32:03;97150.72;;;17.82;76.68
25855;BME280;13680;49.936;11.344;2023-08-12T00:34:29;97151.84;;;17.81;76.45
25855;BME280;13680;49.936;11.344;2023-08-12T00:36:54;97147.09;;;17.78;76.71
25855;BME280;13680;49.936;11.344;2023-08-12T00:39:19;97143.00;;;17.72;77.14
25855;BME280;13680;49.936;11.344;2023-08-12T00:41:45;97146.16;;;17.74;77.11
25855;BME280;13680;49.936;11.344;2023-08-12T00:44:12;97149.91;;;17.70;77.48
25855;BME280;13680;49.936;11.344;2023-08-12T00:46:38;97151.47;;;17.71;77.42
25855;BME280;13680;49.936;11.344;2023-08-12T00:49:05;97152.03;;;17.64;77.32
25855;BME280;13680;49.936;11.344;2023-08-12T00:51:31;97149.44;;;17.67;77.44
25855;BME280;13680;49.936;11.344;2023-08-12T00:53:58;97149.78;;;17.66;77.22
25855;BME280;13680;49.936;11.344;2023-08-12T00:56:23;97146.59;;;17.64;77.62
25855;BME280;13680;49.936;11.344;2023-08-12T00:58:49;97139.91;;;17.61;77.27
25855;BME280;13680;49.936;11.344;2023-08-12T01:01:15;97144.75;;;17.56;77.86
25855;BME280;13680;49.936;11.344;2023-08-12T01:03:41;97147.81;;;17.54;78.10
25855;BME280;13680;49.936;11.344;2023-08-12T01:06:07;97140.44;;;17.55;77.73
25855;BME280;13680;49.936;11.344;2023-08-12T01:08:32;97140.09;;;17.56;77.96
25855;BME280;13680;49.936;11.344;2023-08-12T01:11:15;97134.22;;;17.54;77.80
25855;BME280;13680;49.936;11.344;2023-08-12T01:16:31;97121.28;;;17.51;77.96
25855;BME280;13680;49.936;11.344;2023-08-12T01:18:58;97129.78;;;17.49;77.92
25855;BME280;13680;49.936;11.344;2023-08-12T01:21:29;97125.00;;;17.46;78.06
25855;BME280;13680;49.936;11.344;2023-08-12T01:23:55;97130.78;;;17.45;78.21
25855;BME280;13680;49.936;11.344;2023-08-12T01:26:21;97124.09;;;17.42;77.81
25855;BME280;13680;49.936;11.344;2023-08-12T01:28:46;97122.28;;;17.46;77.15
25855;BME280;13680;49.936;11.344;2023-08-12T01:31:15;97122.72;;;17.36;77.74
25855;BME280;13680;49.936;11.344;2023-08-12T01:33:55;97118.88;;;17.37;77.48
25855;BME280;13680;49.936;11.344;2023-08-12T01:36:24;97115.22;;;17.33;77.98
25855;BME280;13680;49.936;11.344;2023-08-12T01:38:51;97119.53;;;17.34;77.75
25855;BME280;13680;49.936;11.344;2023-08-12T01:41:19;97110.78;;;17.28;78.50
25855;BME280;13680;49.936;11.344;2023-08-12T01:43:47;97111.13;;;17.27;78.18
25855;BME280;13680;49.936;11.344;2023-08-12T01:46:12;97104.09;;;17.26;78.15
25855;BME280;13680;49.936;11.344;2023-08-12T01:48:38;97109.09;;;17.24;77.91
25855;BME280;13680;49.936;11.344;2023-08-12T01:51:03;97118.56;;;17.17;78.55
25855;BME280;13680;49.936;11.344;2023-08-12T01:53:29;97103.41;;;17.16;78.55
25855;BME280;13680;49.936;11.344;2023-08-12T01:55:54;97102.91;;;17.14;78.63
25855;BME280;13680;49.936;11.344;2023-08-12T01:58:19;97096.69;;;17.14;78.24
25855;BME280;13680;49.936;11.344;2023-08-12T02:00:45;97099.09;;;17.15;77.96
25855;BME280;13680;49.936;11.344;2023-08-12T02:03:10;97097.38;;;17.11;78.10
25855;BME280;13680;49.936;11.344;2023-08-12T02:05:35;97097.50;;;17.14;78.25
25855;BME280;13680;49.936;11.344;2023-08-12T02:08:03;97102.00;;;17.10;77.90
25855;BME280;13680;49.936;11.344;2023-08-12T02:10:29;97095.31;;;17.08;78.21
25855;BME280;13680;49.936;11.344;2023-08-12T02:12:54;97089.88;;;17.08;78.16
25855;BME280;13680;49.936;11.344;2023-08-12T02:15:19;97094.75;;;17.02;78.17
25855;BME280;13680;49.936;11.344;2023-08-12T02:17:45;97078.44;;;17.02;78.24
25855;BME280;13680;49.936;11.344;2023-08-12T02:20:10;97072.88;;;16.98;78.82
25855;BME280;13680;49.936;11.344;2023-08-12T02:22:35;97070.50;;;16.97;79.29
25855;BME280;13680;49.936;11.344;2023-08-12T02:25:01;97066.53;;;16.94;79.35
25855;BME280;13680;49.936;11.344;2023-08-12T02:27:26;97068.22;;;16.99;79.08
25855;BME280;13680;49.936;11.344;2023-08-12T02:29:51;97076.25;;;16.95;78.52
25855;BME280;13680;49.936;11.344;2023-08-12T02:32:17;97068.44;;;16.94;78.95
25855;BME280;13680;49.936;11.344;2023-08-12T02:34:42;97069.25;;;16.94;78.97
25855;BME280;13680;49.936;11.344;2023-08-12T02:37:07;97064.25;;;16.96;78.40
25855;BME280;13680;49.936;11.344;2023-08-12T02:39:33;97068.09;;;16.95;78.46
25855;BME280;13680;49.936;11.344;2023-08-12T02:41:58;97062.66;;;16.95;78.54
25855;BME280;13680;49.936;11.344;2023-08-12T02:44:23;97062.56;;;16.92;78.75
25855;BME280;13680;49.936;11.344;2023-08-12T02:46:49;97070.06;;;16.86;79.04
25855;BME280;13680;49.936;11.344;2023-08-12T02:49:14;97064.50;;;16.82;80.00
25855;BME280;13680;49.936;11.344;2023-08-12T02:51:39;97068.81;;;16.83;80.04
25855;BME280;13680;49.936;11.344;2023-08-12T02:54:05;97052.06;;;16.81;79.95
25855;BME280;13680;49.936;11.344;2023-08-12T02:56:30;97064.84;;;16.81;80.13
25855;BME280;13680;49.936;11.344;2023-08-12T02:58:56;97047.56;;;16.85;80.06
25855;BME280;13680;49.936;11.344;2023-08-12T03:01:21;97047.75;;;16.80;79.72
25855;BME280;13680;49.936;11.344;2023-08-12T03:03:47;97054.97;;;16.76;79.92
25855;BME280;13680;49.936;11.344;2023-08-12T03:06:12;97055.63;;;16.73;79.66
25855;BME280;13680;49.936;11.344;2023-08-12T03:08:37;97046.09;;;16.67;80.32
25855;BME280;13680;49.936;11.344;2023-08-12T03:11:03;97052.78;;;16.69;80.45
25855;BME280;13680;49.936;11.344;2023-08-12T03:13:29;97047.69;;;16.68;80.74
25855;BME280;13680;49.936;11.344;2023-08-12T03:15:54;97054.03;;;16.72;80.45
25855;BME280;13680;49.936;11.344;2023-08-12T03:18:20;97050.69;;;16.75;80.02
25855;BME280;13680;49.936;11.344;2023-08-12T03:20:46;97056.31;;;16.70;80.28
25855;BME280;13680;49.936;11.344;2023-08-12T03:23:11;97048.47;;;16.68;80.10
25855;BME280;13680;49.936;11.344;2023-08-12T03:25:37;97054.72;;;16.69;80.36
25855;BME280;13680;49.936;11.344;2023-08-12T03:28:02;97040.03;;;16.70;80.76
25855;BME280;13680;49.936;11.344;2023-08-12T03:30:28;97049.44;;;16.73;80.72
25855;BME280;13680;49.936;11.344;2023-08-12T03:32:53;97048.38;;;16.65;80.88
25855;BME280;13680;49.936;11.344;2023-08-12T03:35:19;97046.44;;;16.65;80.89
25855;BME280;13680;49.936;11.344;2023-08-12T03:37:44;97048.69;;;16.63;80.73
25855;BME280;13680;49.936;11.344;2023-08-12T03:40:09;97045.84;;;16.60;80.54
25855;BME280;13680;49.936;11.344;2023-08-12T03:42:35;97036.47;;;16.57;80.64
25855;BME280;13680;49.936;11.344;2023-08-12T03:45:00;97045.84;;;16.60;80.72
25855;BME280;13680;49.936;11.344;2023-08-12T03:47:26;97039.94;;;16.58;80.66
25855;BME280;13680;49.936;11.344;2023-08-12T03:49:51;97043.13;;;16.60;80.57
25855;BME280;13680;49.936;11.344;2023-08-12T03:52:17;97041.06;;;16.57;80.47
25855;BME280;13680;49.936;11.344;2023-08-12T03:54:42;97041.06;;;16.57;80.36
25855;BME280;13680;49.936;11.344;2023-08-12T03:57:07;97041.75;;;16.53;80.46
25855;BME280;13680;49.936;11.344;2023-08-12T03:59:33;97047.47;;;16.52;80.70
25855;BME280;13680;49.936;11.344;2023-08-12T04:01:58;97046.50;;;16.57;80.41
25855;BME280;13680;49.936;11.344;2023-08-12T04:04:23;97043.13;;;16.60;80.37
25855;BME280;13680;49.936;11.344;2023-08-12T04:06:49;97050.47;;;16.59;80.37
25855;BME280;13680;49.936;11.344;2023-08-12T04:09:17;97047.41;;;16.61;80.34
25855;BME280;13680;49.936;11.344;2023-08-12T04:11:42;97059.88;;;16.62;80.38
25855;BME280;13680;49.936;11.344;2023-08-12T04:14:08;97057.63;;;16.64;80.50
25855;BME280;13680;49.936;11.344;2023-08-12T04:16:33;97054.59;;;16.65;79.85
25855;BME280;13680;49.936;11.344;2023-08-12T04:18:58;97054.03;;;16.72;79.72
25855;BME280;13680;49.936;11.344;2023-08-12T04:21:24;97056.31;;;16.70;80.00
25855;BME280;13680;49.936;11.344;2023-08-12T04:23:49;97057.09;;;16.71;80.54
25855;BME280;13680;49.936;11.344;2023-08-12T04:26:14;97056.31;;;16.70;80.64
25855;BME280;13680;49.936;11.344;2023-08-12T04:28:40;97065.03;;;16.76;80.33
25855;BME280;13680;49.936;11.344;2023-08-12T04:31:06;97057.56;;;16.73;80.60
25855;BME280;13680;49.936;11.344;2023-08-12T04:33:33;97065.03;;;16.76;80.20
25855;BME280;13680;49.936;11.344;2023-08-12T04:35:58;97053.41;;;16.75;79.48
25855;BME280;13680;49.936;11.344;2023-08-12T04:38:25;97059.06;;;16.82;79.37
25855;BME280;13680;49.936;11.344;2023-08-12T04:40:52;97045.50;;;16.82;79.68
25855;BME280;13680;49.936;11.344;2023-08-12T04:43:18;97052.47;;;16.92;80.05
25855;BME280;13680;49.936;11.344;2023-08-12T04:45:47;97051.47;;;16.97;79.52
25855;BME280;13680;49.936;11.344;2023-08-12T04:48:13;97049.94;;;17.08;79.74
25855;BME280;13680;49.936;11.344;2023-08-12T04:50:38;97049.03;;;17.16;79.44
25855;BME280;13680;49.936;11.344;2023-08-12T04:53:05;97045.69;;;17.32;79.37
25855;BME280;13680;49.936;11.344;2023-08-12T04:55:30;97042.88;;;17.41;79.00
25855;BME280;13680;49.936;11.344;2023-08-12T04:57:56;97044.03;;;17.52;78.74
25855;BME280;13680;49.936;11.344;2023-08-12T05:00:22;97032.16;;;17.57;78.45
25855;BME280;13680;49.936;11.344;2023-08-12T05:02:47;97040.31;;;17.69;78.48
25855;BME280;13680;49.936;11.344;2023-08-12T05:05:13;97033.75;;;17.82;78.36
25855;BME280;13680;49.936;11.344;2023-08-12T05:07:39;97036.25;;;18.00;78.03
25855;BME280;13680;49.936;11.344;2023-08-12T05:10:04;97039.44;;;18.14;77.66
25855;BME280;13680;49.936;11.344;2023-08-12T05:12:30;97030.31;;;18.23;77.30
25855;BME280;13680;49.936;11.344;2023-08-12T05:14:55;97027.13;;;18.33;76.55
25855;BME280;13680;49.936;11.344;2023-08-12T05:17:21;97031.44;;;18.34;76.36
25855;BME280;13680;49.936;11.344;2023-08-12T05:19:46;97032.31;;;18.51;75.92
25855;BME280;13680;49.936;11.344;2023-08-12T05:22:12;97038.22;;;18.53;75.92
25855;BME280;13680;49.936;11.344;2023-08-12T05:24:37;97035.94;;;18.55;75.88
25855;BME280;13680;49.936;11.344;2023-08-12T05:27:02;97035.38;;;18.49;76.16
25855;BME280;13680;49.936;11.344;2023-08-12T05:29:29;97030.72;;;18.49;75.74
25855;BME280;13680;49.936;11.344;2023-08-12T05:31:54;97026.66;;;18.43;76.12
25855;BME280;13680;49.936;11.344;2023-08-12T05:34:20;97024.84;;;18.47;76.18
25855;BME280;13680;49.936;11.344;2023-08-12T05:36:45;97018.81;;;18.54;76.61
25855;BME280;13680;49.936;11.344;2023-08-12T05:39:10;97014.50;;;18.81;76.26
25855;BME280;13680;49.936;11.344;2023-08-12T05:41:36;97012.22;;;19.12;75.78
25855;BME280;13680;49.936;11.344;2023-08-12T05:44:01;97014.13;;;19.24;76.44
25855;BME280;13680;49.936;11.344;2023-08-12T05:46:26;97007.78;;;19.52;75.74
25855;BME280;13680;49.936;11.344;2023-08-12T05:48:52;97009.47;;;19.72;75.59
25855;BME280;13680;49.936;11.344;2023-08-12T05:51:17;97007.34;;;19.98;74.95
25855;BME280;13680;49.936;11.344;2023-08-12T05:53:42;96998.47;;;20.20;74.48
25855;BME280;13680;49.936;11.344;2023-08-12T05:56:08;96995.28;;;20.54;73.67
25855;BME280;13680;49.936;11.344;2023-08-12T05:58:33;96993.88;;;20.80;73.54
25855;BME280;13680;49.936;11.344;2023-08-12T06:00:58;96984.38;;;21.16;73.18
25855;BME280;13680;49.936;11.344;2023-08-12T06:03:24;96977.75;;;21.40;73.42
25855;BME280;13680;49.936;11.344;2023-08-12T06:05:49;96985.31;;;21.70;72.49
25855;BME280;13680;49.936;11.344;2023-08-12T06:08:15;96978.00;;;21.78;73.04
25855;BME280;13680;49.936;11.344;2023-08-12T06:10:41;96986.38;;;21.89;71.48
25855;BME280;13680;49.936;11.344;2023-08-12T06:13:06;96985.06;;;22.06;70.58
25855;BME280;13680;49.936;11.344;2023-08-12T06:15:32;96988.06;;;22.24;70.64
25855;BME280;13680;49.936;11.344;2023-08-12T06:17:59;96989.63;;;22.55;70.29
25855;BME280;13680;49.936;11.344;2023-08-12T06:20:24;96982.28;;;22.97;65.11
25855;BME280;13680;49.936;11.344;2023-08-12T06:22:50;96984.28;;;23.38;64.38
25855;BME280;13680;49.936;11.344;2023-08-12T06:25:16;96989.28;;;23.74;60.18
25855;BME280;13680;49.936;11.344;2023-08-12T06:27:42;96989.94;;;24.08;60.12
25855;BME280;13680;49.936;11.344;2023-08-12T06:30:08;96980.53;;;24.13;58.82
25855;BME280;13680;49.936;11.344;2023-08-12T06:32:34;96973.06;;;24.06;57.36
25855;BME280;13680;49.936;11.344;2023-08-12T06:35:00;96975.38;;;24.04;59.96
25855;BME280;13680;49.936;11.344;2023-08-12T06:37:25;96972.88;;;23.88;60.51
25855;BME280;13680;49.936;11.344;2023-08-12T06:39:50;96970.50;;;23.79;60.86
25855;BME280;13680;49.936;11.344;2023-08-12T06:42:16;96970.81;;;23.74;60.83
25855;BME280;13680;49.936;11.344;2023-08-12T06:44:41;96974.63;;;23.59;59.85
25855;BME280;13680;49.936;11.344;2023-08-12T06:47:06;96970.78;;;23.67;61.22
25855;BME280;13680;49.936;11.344;2023-08-12T06:49:32;96964.81;;;23.54;60.37
25855;BME280;13680;49.936;11.344;2023-08-12T06:51:57;96966.41;;;23.59;60.24
25855;BME280;13680;49.936;11.344;2023-08-12T06:54:23;96971.19;;;23.69;60.55
25855;BME280;13680;49.936;11.344;2023-08-12T06:56:49;96969.28;;;23.73;59.61
25855;BME280;13680;49.936;11.344;2023-08-12T06:59:14;96973.88;;;23.58;60.15
25855;BME280;13680;49.936;11.344;2023-08-12T07:01:39;96974.28;;;23.64;60.34
25855;BME280;13680;49.936;11.344;2023-08-12T07:04:05;96973.56;;;23.74;59.91
25855;BME280;13680;49.936;11.344;2023-08-12T07:06:30;96977.16;;;23.78;61.09
25855;BME280;13680;49.936;11.344;2023-08-12T07:08:56;96980.28;;;23.80;62.24
25855;BME280;13680;49.936;11.344;2023-08-12T07:11:21;96978.47;;;23.95;62.33
25855;BME280;13680;49.936;11.344;2023-08-12T07:13:47;96978.47;;;23.95;62.80
25855;BME280;13680;49.936;11.344;2023-08-12T07:16:12;96983.97;;;23.95;63.57
25855;BME280;13680;49.936;11.344;2023-08-12T07:18:37;96988.72;;;24.06;62.70
25855;BME280;13680;49.936;11.344;2023-08-12T07:21:03;96987.53;;;24.03;62.71
25855;BME280;13680;49.936;11.344;2023-08-12T07:23:29;96991.91;;;24.08;62.24
25855;BME280;13680;49.936;11.344;2023-08-12T07:25:54;96994.66;;;24.15;62.88
25855;BME280;13680;49.936;11.344;2023-08-12T07:28:19;96990.38;;;24.14;64.74
25855;BME280;13680;49.936;11.344;2023-08-12T07:30:45;96988.41;;;24.14;65.16
25855;BME280;13680;49.936;11.344;2023-08-12T07:33:10;96989.91;;;24.05;66.12
25855;BME280;13680;49.936;11.344;2023-08-12T07:35:35;96985.25;;;24.09;66.32
25855;BME280;13680;49.936;11.344;2023-08-12T07:38:01;96985.28;;;24.19;65.98
25855;BME280;13680;49.936;11.344;2023-08-12T07:40:26;96990.81;;;24.23;65.53
25855;BME280;13680;49.936;11.344;2023-08-12T07:42:51;96992.00;;;24.26;64.86
25855;BME280;13680;49.936;11.344;2023-08-12T07:45:17;96985.00;;;24.35;64.69
25855;BME280;13680;49.936;11.344;2023-08-12T07:47:42;96992.03;;;24.29;67.20
25855;BME280;13680;49.936;11.344;2023-08-12T07:50:07;96988.91;;;24.34;66.49
25855;BME280;13680;49.936;11.344;2023-08-12T07:52:33;96991.66;;;24.42;65.90
25855;BME280;13680;49.936;11.344;2023-08-12T07:54:59;96984.28;;;24.49;65.35
25855;BME280;13680;49.936;11.344;2023-08-12T07:57:24;96990.53;;;24.46;66.00
25855;BME280;13680;49.936;11.344;2023-08-12T07:59:50;96989.38;;;24.51;63.86
25855;BME280;13680;49.936;11.344;2023-08-12T08:02:16;96986.28;;;24.60;62.85
25855;BME280;13680;49.936;11.344;2023-08-12T08:04:42;96986.72;;;24.65;61.99
25855;BME280;13680;49.936;11.344;2023-08-12T08:07:08;96988.72;;;24.79;61.46
25855;BME280;13680;49.936;11.344;2023-08-12T08:09:34;96992.34;;;24.98;60.04
25855;BME280;13680;49.936;11.344;2023-08-12T08:11:59;96981.34;;;25.20;59.50
25855;BME280;13680;49.936;11.344;2023-08-12T08:14:26;96988.47;;;25.39;59.01
25855;BME280;13680;49.936;11.344;2023-08-12T08:16:51;96974.31;;;25.73;55.45
25855;BME280;13680;49.936;11.344;2023-08-12T08:19:16;96986.91;;;25.95;53.99
25855;BME280;13680;49.936;11.344;2023-08-12T08:21:41;96982.94;;;26.18;53.68
25855;BME280;13680;49.936;11.344;2023-08-12T08:24:07;96992.41;;;26.13;53.46
25855;BME280;13680;49.936;11.344;2023-08-12T08:26:33;96980.59;;;26.09;53.62
25855;BME280;13680;49.936;11.344;2023-08-12T08:28:59;96973.88;;;26.14;52.77
25855;BME280;13680;49.936;11.344;2023-08-12T08:31:24;96976.69;;;25.89;54.16
25855;BME280;13680;49.936;11.344;2023-08-12T08:33:50;96981.38;;;25.99;53.45
25855;BME280;13680;49.936;11.344;2023-08-12T08:36:15;96981.78;;;25.90;52.47
25855;BME280;13680;49.936;11.344;2023-08-12T08:38:41;96981.38;;;26.06;52.17
25855;BME280;13680;49.936;11.344;2023-08-12T08:41:08;96980.19;;;26.14;51.54
25855;BME280;13680;49.936;11.344;2023-08-12T08:43:35;96984.13;;;26.13;50.62
25855;BME280;13680;49.936;11.344;2023-08-12T08:46:01;96974.63;;;26.40;50.83
25855;BME280;13680;49.936;11.344;2023-08-12T08:48:27;96972.94;;;26.68;50.76
25855;BME280;13680;49.936;11.344;2023-08-12T08:50:53;96978.00;;;26.80;50.67
25855;BME280;13680;49.936;11.344;2023-08-12T08:53:19;96976.38;;;26.93;50.65
25855;BME280;13680;49.936;11.344;2023-08-12T08:55:45;96980.94;;;27.18;49.91
25855;BME280;13680;49.936;11.344;2023-08-12T08:58:11;96980.47;;;27.31;49.14
25855;BME280;13680;49.936;11.344;2023-08-12T09:00:37;96973.41;;;27.22;48.11
25855;BME280;13680;49.936;11.344;2023-08-12T09:03:05;96979.06;;;27.01;48.33
25855;BME280;13680;49.936;11.344;2023-08-12T09:05:31;96975.53;;;27.04;48.70
25855;BME280;13680;49.936;11.344;2023-08-12T09:07:58;96970.06;;;26.93;49.79
25855;BME280;13680;49.936;11.344;2023-08-12T09:10:26;96980.34;;;26.85;49.94
25855;BME280;13680;49.936;11.344;2023-08-12T09:12:53;96981.94;;;26.86;50.80
25855;BME280;13680;49.936;11.344;2023-08-12T09:15:19;96983.94;;;26.82;51.64
25855;BME280;13680;49.936;11.344;2023-08-12T09:17:45;96974.06;;;26.81;52.55
25855;BME280;13680;49.936;11.344;2023-08-12T09:20:10;96979.56;;;26.85;52.88
25855;BME280;13680;49.936;11.344;2023-08-12T09:22:43;96974.03;;;26.92;52.90
25855;BME280;13680;49.936;11.344;2023-08-12T09:25:09;96965.25;;;27.08;52.25
25855;BME280;13680;49.936;11.344;2023-08-12T09:27:38;96962.03;;;27.20;53.50
25855;BME280;13680;49.936;11.344;2023-08-12T09:30:04;96958.81;;;27.29;52.83
25855;BME280;13680;49.936;11.344;2023-08-12T09:32:30;96969.41;;;27.34;51.04
25855;BME280;13680;49.936;11.344;2023-08-12T09:34:55;96963.06;;;27.41;51.32
25855;BME280;13680;49.936;11.344;2023-08-12T09:37:23;96963.91;;;27.34;50.90
25855;BME280;13680;49.936;11.344;2023-08-12T09:39:50;96970.59;;;27.33;50.21
25855;BME280;13680;49.936;11.344;2023-08-12T09:42:16;96961.25;;;27.16;50.51
25855;BME280;13680;49.936;11.344;2023-08-12T09:44:43;96962.78;;;27.24;50.84
25855;BME280;13680;49.936;11.344;2023-08-12T09:47:08;96972.13;;;27.41;51.02
25855;BME280;13680;49.936;11.344;2023-08-12T09:49:34;96961.59;;;27.74;50.57
25855;BME280;13680;49.936;11.344;2023-08-12T09:52:01;96964.63;;;28.29;50.13
25855;BME280;13680;49.936;11.344;2023-08-12T09:54:28;96960.59;;;28.72;49.35
25855;BME280;13680;49.936;11.344;2023-08-12T09:57:00;96955.63;;;29.18;46.15
25855;BME280;13680;49.936;11.344;2023-08-12T09:59:34;96956.22;;;29.80;45.00
25855;BME280;13680;49.936;11.344;2023-08-12T10:02:03;96952.97;;;29.62;43.91
25855;BME280;13680;49.936;11.344;2023-08-12T10:04:37;96952.78;;;29.49;44.03
25855;BME280;13680;49.936;11.344;2023-08-12T10:07:04;96953.38;;;29.84;43.64
25855;BME280;13680;49.936;11.344;2023-08-12T10:09:31;96944.34;;;30.44;43.14
25855;BME280;13680;49.936;11.344;2023-08-12T10:11:57;96955.97;;;30.59;43.42
25855;BME280;13680;49.936;11.344;2023-08-12T10:14:23;96952.75;;;30.80;41.92
25855;BME280;13680;49.936;11.344;2023-08-12T10:16:49;96948.63;;;31.05;41.60
25855;BME280;13680;49.936;11.344;2023-08-12T10:19:15;96951.91;;;31.00;42.27
25855;BME280;13680;49.936;11.344;2023-08-12T10:21:42;96943.63;;;31.33;39.88
25855;BME280;13680;49.936;11.344;2023-08-12T10:24:08;96935.66;;;31.35;41.72
25855;BME280;13680;49.936;11.344;2023-08-12T10:26:35;96926.53;;;31.34;40.39
25855;BME280;13680;49.936;11.344;2023-08-12T10:29:01;96930.97;;;31.65;40.05
25855;BME280;13680;49.936;11.344;2023-08-12T10:31:27;96932.09;;;31.67;39.20
25855;BME280;13680;49.936;11.344;2023-08-12T10:33:53;96923.91;;;31.60;40.19
25855;BME280;13680;49.936;11.344;2023-08-12T10:36:21;96920.28;;;31.30;40.65
25855;BME280;13680;49.936;11.344;2023-08-12T10:38:46;96922.00;;;31.57;40.45
25855;BME280;13680;49.936;11.344;2023-08-12T10:41:23;96916.28;;;31.64;40.46
25855;BME280;13680;49.936;11.344;2023-08-12T10:43:59;96920.09;;;31.54;41.18
25855;BME280;13680;49.936;11.344;2023-08-12T10:46:29;96910.34;;;32.08;39.78
25855;BME280;13680;49.936;11.344;2023-08-12T10:49:08;96899.47;;;32.43;39.54
25855;BME280;13680;49.936;11.344;2023-08-12T10:51:47;96907.13;;;32.39;39.14
25855;BME280;13680;49.936;11.344;2023-08-12T10:54:26;96901.66;;;32.91;38.65
25855;BME280;13680;49.936;11.344;2023-08-12T11:02:16;96893.94;;;33.34;37.47
25855;BME280;13680;49.936;11.344;2023-08-12T11:04:42;96891.16;;;33.34;36.05
25855;BME280;13680;49.936;11.344;2023-08-12T11:07:18;96880.03;;;33.69;36.23
25855;BME280;13680;49.936;11.344;2023-08-12T11:09:45;96877.06;;;33.50;36.43
25855;BME280;13680;49.936;11.344;2023-08-12T11:12:10;96884.16;;;33.64;35.56
25855;BME280;13680;49.936;11.344;2023-08-12T11:14:49;96874.88;;;34.02;35.64
25855;BME280;13680;49.936;11.344;2023-08-12T11:17:18;96873.97;;;34.28;36.79
25855;BME280;13680;49.936;11.344;2023-08-12T11:19:43;96863.44;;;34.54;36.76
25855;BME280;13680;49.936;11.344;2023-08-12T11:22:09;96865.69;;;34.78;35.00
25855;BME280;13680;49.936;11.344;2023-08-12T11:24:40;96860.34;;;34.61;36.17
25855;BME280;13680;49.936;11.344;2023-08-12T11:27:08;96860.06;;;34.59;34.73
25855;BME280;13680;49.936;11.344;2023-08-12T11:29:34;96852.63;;;34.65;34.75
25855;BME280;13680;49.936;11.344;2023-08-12T11:32:00;96855.88;;;34.64;33.94
25855;BME280;13680;49.936;11.344;2023-08-12T11:34:26;96842.28;;;35.34;33.38
25855;BME280;13680;49.936;11.344;2023-08-12T11:36:51;96843.72;;;35.48;34.93
25855;BME280;13680;49.936;11.344;2023-08-12T11:39:17;96840.13;;;35.85;31.97
25855;BME280;13680;49.936;11.344;2023-08-12T11:41:42;96836.72;;;35.44;32.07
25855;BME280;13680;49.936;11.344;2023-08-12T11:44:21;96829.13;;;35.91;32.64
25855;BME280;13680;49.936;11.344;2023-08-12T11:46:46;96822.59;;;35.94;30.15
25855;BME280;13680;49.936;11.344;2023-08-12T11:49:12;96818.28;;;36.54;30.81
25855;BME280;13680;49.936;11.344;2023-08-12T11:51:37;96816.63;;;36.29;31.35
25855;BME280;13680;49.936;11.344;2023-08-12T11:54:03;96809.81;;;37.21;29.86
25855;BME280;13680;49.936;11.344;2023-08-12T11:56:28;96806.06;;;36.14;29.37
25855;BME280;13680;49.936;11.344;2023-08-12T11:58:54;96803.94;;;35.63;31.41
25855;BME280;13680;49.936;11.344;2023-08-12T12:01:21;96792.25;;;36.11;31.07
25855;BME280;13680;49.936;11.344;2023-08-12T12:03:51;96790.25;;;36.54;31.12
25855;BME280;13680;49.936;11.344;2023-08-12T12:06:17;96799.19;;;37.01;31.74
25855;BME280;13680;49.936;11.344;2023-08-12T12:08:45;96796.63;;;36.88;30.51
25855;BME280;13680;49.936;11.344;2023-08-12T12:11:11;96790.44;;;37.08;30.92
25855;BME280;13680;49.936;11.344;2023-08-12T12:13:36;96777.13;;;37.18;30.67
25855;BME280;13680;49.936;11.344;2023-08-12T12:16:02;96789.75;;;37.62;30.12
25855;BME280;13680;49.936;11.344;2023-08-12T12:18:27;96775.53;;;37.02;29.05
25855;BME280;13680;49.936;11.344;2023-08-12T12:20:56;96782.50;;;35.97;30.29
25855;BME280;13680;49.936;11.344;2023-08-12T12:23:22;96775.13;;;36.61;31.29
25855;BME280;13680;49.936;11.344;2023-08-12T12:25:47;96775.03;;;37.04;30.72
25855;BME280;13680;49.936;11.344;2023-08-12T12:28:12;96770.25;;;37.43;29.53
25855;BME280;13680;49.936;11.344;2023-08-12T12:30:38;96763.56;;;37.41;29.19
25855;BME280;13680;49.936;11.344;2023-08-12T12:33:03;96764.78;;;37.00;29.97
25855;BME280;13680;49.936;11.344;2023-08-12T12:35:29;96765.34;;;36.13;29.37
25855;BME280;13680;49.936;11.344;2023-08-12T12:37:54;96763.44;;;36.62;30.40
25855;BME280;13680;49.936;11.344;2023-08-12T12:40:20;96766.13;;;36.04;30.36
25855;BME280;13680;49.936;11.344;2023-08-12T12:42:45;96759.53;;;36.35;30.24
25855;BME280;13680;49.936;11.344;2023-08-12T12:45:10;96768.06;;;35.43;31.78
25855;BME280;13680;49.936;11.344;2023-08-12T12:47:35;96766.50;;;36.40;30.67
25855;BME280;13680;49.936;11.344;2023-08-12T12:50:02;96766.34;;;36.34;28.79
25855;BME280;13680;49.936;11.344;2023-08-12T12:52:28;96767.22;;;36.83;28.62